Página principal
METAR-TAF:

Aeroportos :

Cambridge, Inglaterra

latitude: 52-12N, longitude: 000-11E, altura: 15 m

Observação actual do tempo

O boletim foi feito há 55 minutos, às 19:20 UTC
Vento 23 kt de sul com rajadas de 35 kt, variando entre su-sudeste e oes-sudoeste
Temperatura 12°C
Humidade 82%
Pressão 988 hPa
Visibilidade 10 km ou mais
Nuvens fragmentadasa uma altura de 3500 ft

METAR: EGSC 061920Z 17023G35KT 150V240 9999 BKN035 12/09 Q0988

Hora: 20:15 (20:15 UTC)

Previsão

O boletim foi feito há 6 horas e 15 minutos, às 14:00 UTC
Previsão válida de 06 às 15 UTC a 06 às 19 UTC
Vento 22 kt de sul com rajadas de 32 kt
Visibilidade 10 km ou mais
Nuvens fragmentadasa uma altura de 2200 ft
Temporariamente
de 06 às 15 UTC a 06 às 19 UTC
Vento 26 kt de sul com rajadas de 42 kt

TAF: EGSC 061400Z 0615/0619 19022G32KT 9999 BKN022 TEMPO 0615/0619 19026G42KT

METAR-TAF

Observações e previsões do tempo de mais de 4000 aeroportos (mensagens METAR e TAF).

As estações disponíveis são os pontos amarelos e vermelhos sobre o mapa.

Mova o rato sobre o mapa para ver o nome da estação.

Depois clique no ponto para visualizar as observações e previsões meteorológicas.

Para alterar o mapa : clique nos botões verdes com uma cruz preta para aumentar o zoom; no botão verde com uma pitada de zoom; ou nas setas verdes para mapas adjacentes.


METAR-TAF: